sensor_id;sensor_type;location;lat;lon;timestamp;P1;durP1;ratioP1;P2;durP2;ratioP2
2712;SDS011;1366;47.988;7.856;2023-01-05T05:00:59;0.70;;;0.70;;
2712;SDS011;1366;47.988;7.856;2023-01-05T05:03:25;0.80;;;0.70;;
2712;SDS011;1366;47.988;7.856;2023-01-05T05:05:51;0.87;;;0.87;;
2712;SDS011;1366;47.988;7.856;2023-01-05T05:08:17;0.77;;;0.77;;
2712;SDS011;1366;47.988;7.856;2023-01-05T05:10:43;0.80;;;0.80;;
2712;SDS011;1366;47.988;7.856;2023-01-05T05:13:09;1.60;;;0.80;;
2712;SDS011;1366;47.988;7.856;2023-01-05T05:15:35;1.07;;;0.80;;
2712;SDS011;1366;47.988;7.856;2023-01-05T05:18:01;0.70;;;0.70;;
2712;SDS011;1366;47.988;7.856;2023-01-05T05:20:27;0.70;;;0.70;;
2712;SDS011;1366;47.988;7.856;2023-01-05T05:22:53;0.77;;;0.77;;
2712;SDS011;1366;47.988;7.856;2023-01-05T05:25:19;1.07;;;0.70;;
2712;SDS011;1366;47.988;7.856;2023-01-05T05:27:45;0.97;;;0.70;;
2712;SDS011;1366;47.988;7.856;2023-01-05T05:30:11;0.70;;;0.70;;
2712;SDS011;1366;47.988;7.856;2023-01-05T05:32:38;0.70;;;0.70;;
2712;SDS011;1366;47.988;7.856;2023-01-05T05:35:04;1.07;;;0.70;;
2712;SDS011;1366;47.988;7.856;2023-01-05T05:37:30;1.07;;;0.77;;
2712;SDS011;1366;47.988;7.856;2023-01-05T05:39:56;0.77;;;0.77;;
2712;SDS011;1366;47.988;7.856;2023-01-05T05:42:22;0.80;;;0.80;;
2712;SDS011;1366;47.988;7.856;2023-01-05T05:44:48;0.70;;;0.70;;
2712;SDS011;1366;47.988;7.856;2023-01-05T05:47:14;0.70;;;0.70;;
2712;SDS011;1366;47.988;7.856;2023-01-05T05:49:40;0.80;;;0.80;;
2712;SDS011;1366;47.988;7.856;2023-01-05T05:52:06;0.80;;;0.80;;
2712;SDS011;1366;47.988;7.856;2023-01-05T05:54:32;0.80;;;0.80;;
2712;SDS011;1366;47.988;7.856;2023-01-05T05:56:58;0.80;;;0.80;;
2712;SDS011;1366;47.988;7.856;2023-01-05T05:59:24;0.77;;;0.77;;
2712;SDS011;1366;47.988;7.856;2023-01-05T06:01:50;0.80;;;0.80;;
2712;SDS011;1366;47.988;7.856;2023-01-05T06:04:16;0.80;;;0.80;;
2712;SDS011;1366;47.988;7.856;2023-01-05T06:06:42;1.00;;;0.80;;
2712;SDS011;1366;47.988;7.856;2023-01-05T06:09:08;0.90;;;0.90;;
2712;SDS011;1366;47.988;7.856;2023-01-05T06:11:34;0.90;;;0.80;;
2712;SDS011;1366;47.988;7.856;2023-01-05T06:14:01;0.93;;;0.80;;
2712;SDS011;1366;47.988;7.856;2023-01-05T06:16:27;0.83;;;0.80;;
2712;SDS011;1366;47.988;7.856;2023-01-05T06:18:53;1.30;;;0.80;;
2712;SDS011;1366;47.988;7.856;2023-01-05T06:21:19;0.70;;;0.70;;
2712;SDS011;1366;47.988;7.856;2023-01-05T06:23:46;0.80;;;0.80;;
2712;SDS011;1366;47.988;7.856;2023-01-05T06:26:12;0.80;;;0.80;;
2712;SDS011;1366;47.988;7.856;2023-01-05T06:28:38;0.87;;;0.87;;
2712;SDS011;1366;47.988;7.856;2023-01-05T06:31:04;0.90;;;0.90;;
2712;SDS011;1366;47.988;7.856;2023-01-05T06:33:30;0.70;;;0.70;;
2712;SDS011;1366;47.988;7.856;2023-01-05T06:35:56;0.80;;;0.80;;
2712;SDS011;1366;47.988;7.856;2023-01-05T06:38:23;0.80;;;0.80;;
2712;SDS011;1366;47.988;7.856;2023-01-05T06:40:50;0.80;;;0.80;;
2712;SDS011;1366;47.988;7.856;2023-01-05T06:43:16;0.90;;;0.90;;
2712;SDS011;1366;47.988;7.856;2023-01-05T06:45:43;0.80;;;0.80;;
2712;SDS011;1366;47.988;7.856;2023-01-05T06:48:09;1.00;;;0.90;;
2712;SDS011;1366;47.988;7.856;2023-01-05T06:50:35;1.07;;;1.00;;
2712;SDS011;1366;47.988;7.856;2023-01-05T06:53:01;1.00;;;1.00;;
2712;SDS011;1366;47.988;7.856;2023-01-05T06:55:27;1.00;;;0.90;;
2712;SDS011;1366;47.988;7.856;2023-01-05T06:57:53;1.10;;;1.00;;
2712;SDS011;1366;47.988;7.856;2023-01-05T07:00:20;1.77;;;1.00;;
2712;SDS011;1366;47.988;7.856;2023-01-05T07:02:46;0.90;;;0.90;;
2712;SDS011;1366;47.988;7.856;2023-01-05T07:05:12;2.10;;;0.83;;
2712;SDS011;1366;47.988;7.856;2023-01-05T07:07:38;0.77;;;0.77;;
2712;SDS011;1366;47.988;7.856;2023-01-05T07:10:04;0.73;;;0.73;;
2712;SDS011;1366;47.988;7.856;2023-01-05T07:12:30;1.00;;;1.00;;
2712;SDS011;1366;47.988;7.856;2023-01-05T07:14:56;0.70;;;0.70;;
2712;SDS011;1366;47.988;7.856;2023-01-05T07:17:22;1.00;;;1.00;;
2712;SDS011;1366;47.988;7.856;2023-01-05T07:19:49;0.83;;;0.83;;
2712;SDS011;1366;47.988;7.856;2023-01-05T07:22:15;1.00;;;1.00;;
2712;SDS011;1366;47.988;7.856;2023-01-05T07:24:41;1.07;;;1.07;;
2712;SDS011;1366;47.988;7.856;2023-01-05T07:27:07;0.90;;;0.90;;
2712;SDS011;1366;47.988;7.856;2023-01-05T07:29:33;0.80;;;0.80;;
2712;SDS011;1366;47.988;7.856;2023-01-05T07:31:59;1.00;;;1.00;;
2712;SDS011;1366;47.988;7.856;2023-01-05T07:34:25;0.83;;;0.83;;
2712;SDS011;1366;47.988;7.856;2023-01-05T07:36:51;0.90;;;0.90;;
2712;SDS011;1366;47.988;7.856;2023-01-05T07:39:17;1.10;;;1.00;;
2712;SDS011;1366;47.988;7.856;2023-01-05T07:41:43;0.70;;;0.70;;
2712;SDS011;1366;47.988;7.856;2023-01-05T07:44:09;0.80;;;0.80;;
2712;SDS011;1366;47.988;7.856;2023-01-05T07:46:36;0.80;;;0.80;;
2712;SDS011;1366;47.988;7.856;2023-01-05T07:49:02;1.00;;;1.00;;
2712;SDS011;1366;47.988;7.856;2023-01-05T07:51:28;1.23;;;0.93;;
2712;SDS011;1366;47.988;7.856;2023-01-05T07:53:54;0.90;;;0.90;;
2712;SDS011;1366;47.988;7.856;2023-01-05T07:56:21;0.80;;;0.80;;
2712;SDS011;1366;47.988;7.856;2023-01-05T07:58:47;0.80;;;0.80;;
2712;SDS011;1366;47.988;7.856;2023-01-05T08:01:14;0.90;;;0.90;;
2712;SDS011;1366;47.988;7.856;2023-01-05T08:03:42;0.97;;;0.97;;
2712;SDS011;1366;47.988;7.856;2023-01-05T08:06:12;1.00;;;1.00;;
2712;SDS011;1366;47.988;7.856;2023-01-05T08:08:39;1.00;;;0.90;;
2712;SDS011;1366;47.988;7.856;2023-01-05T08:11:05;0.80;;;0.80;;
2712;SDS011;1366;47.988;7.856;2023-01-05T08:13:32;1.00;;;1.00;;
2712;SDS011;1366;47.988;7.856;2023-01-05T08:16:17;0.93;;;0.93;;
2712;SDS011;1366;47.988;7.856;2023-01-05T08:18:43;0.80;;;0.80;;
2712;SDS011;1366;47.988;7.856;2023-01-05T08:21:09;0.90;;;0.90;;
2712;SDS011;1366;47.988;7.856;2023-01-05T08:23:35;0.93;;;0.93;;
2712;SDS011;1366;47.988;7.856;2023-01-05T08:26:02;1.13;;;0.90;;
2712;SDS011;1366;47.988;7.856;2023-01-05T08:28:29;0.97;;;0.97;;
2712;SDS011;1366;47.988;7.856;2023-01-05T08:31:05;0.80;;;0.80;;
2712;SDS011;1366;47.988;7.856;2023-01-05T08:33:32;1.00;;;1.00;;
2712;SDS011;1366;47.988;7.856;2023-01-05T08:35:58;1.00;;;1.00;;
2712;SDS011;1366;47.988;7.856;2023-01-05T08:38:24;1.23;;;1.13;;
2712;SDS011;1366;47.988;7.856;2023-01-05T08:40:50;1.03;;;0.97;;
2712;SDS011;1366;47.988;7.856;2023-01-05T08:43:16;0.83;;;0.83;;
2712;SDS011;1366;47.988;7.856;2023-01-05T08:45:46;0.80;;;0.80;;
2712;SDS011;1366;47.988;7.856;2023-01-05T08:48:12;0.90;;;0.90;;
2712;SDS011;1366;47.988;7.856;2023-01-05T08:50:38;1.00;;;1.00;;
2712;SDS011;1366;47.988;7.856;2023-01-05T08:53:05;1.10;;;0.90;;
2712;SDS011;1366;47.988;7.856;2023-01-05T08:55:31;1.10;;;1.10;;
2712;SDS011;1366;47.988;7.856;2023-01-05T08:57:57;1.27;;;1.17;;
2712;SDS011;1366;47.988;7.856;2023-01-05T09:00:23;0.93;;;0.93;;
2712;SDS011;1366;47.988;7.856;2023-01-05T09:02:49;1.40;;;1.30;;
2712;SDS011;1366;47.988;7.856;2023-01-05T09:05:15;1.30;;;1.20;;
2712;SDS011;1366;47.988;7.856;2023-01-05T09:07:41;1.23;;;1.13;;
2712;SDS011;1366;47.988;7.856;2023-01-05T09:10:08;1.10;;;1.10;;
2712;SDS011;1366;47.988;7.856;2023-01-05T09:12:35;1.90;;;1.10;;
2712;SDS011;1366;47.988;7.856;2023-01-05T09:15:01;1.17;;;1.07;;
2712;SDS011;1366;47.988;7.856;2023-01-05T09:17:27;1.90;;;1.20;;
2712;SDS011;1366;47.988;7.856;2023-01-05T09:19:53;1.13;;;1.13;;
2712;SDS011;1366;47.988;7.856;2023-01-05T09:22:19;1.00;;;1.00;;
2712;SDS011;1366;47.988;7.856;2023-01-05T09:24:46;1.47;;;1.37;;
2712;SDS011;1366;47.988;7.856;2023-01-05T09:27:12;1.10;;;1.03;;
2712;SDS011;1366;47.988;7.856;2023-01-05T09:29:38;1.40;;;1.10;;
2712;SDS011;1366;47.988;7.856;2023-01-05T09:32:04;1.57;;;1.20;;
2712;SDS011;1366;47.988;7.856;2023-01-05T09:34:30;1.57;;;1.43;;
2712;SDS011;1366;47.988;7.856;2023-01-05T09:36:56;1.50;;;1.40;;
2712;SDS011;1366;47.988;7.856;2023-01-05T09:39:22;1.67;;;1.57;;
2712;SDS011;1366;47.988;7.856;2023-01-05T09:41:52;1.73;;;1.33;;
2712;SDS011;1366;47.988;7.856;2023-01-05T09:44:29;1.70;;;1.57;;
2712;SDS011;1366;47.988;7.856;2023-01-05T09:47:04;1.57;;;1.47;;
2712;SDS011;1366;47.988;7.856;2023-01-05T09:49:34;2.07;;;1.33;;
2712;SDS011;1366;47.988;7.856;2023-01-05T09:52:02;1.30;;;1.20;;
2712;SDS011;1366;47.988;7.856;2023-01-05T09:54:32;1.30;;;1.20;;
2712;SDS011;1366;47.988;7.856;2023-01-05T09:56:59;2.30;;;1.33;;
2712;SDS011;1366;47.988;7.856;2023-01-05T09:59:27;1.17;;;1.10;;
2712;SDS011;1366;47.988;7.856;2023-01-05T10:01:54;2.10;;;1.40;;
2712;SDS011;1366;47.988;7.856;2023-01-05T10:04:21;3.63;;;2.53;;
2712;SDS011;1366;47.988;7.856;2023-01-05T10:06:51;1.80;;;1.33;;
2712;SDS011;1366;47.988;7.856;2023-01-05T10:09:20;2.00;;;1.30;;
2712;SDS011;1366;47.988;7.856;2023-01-05T10:14:48;1.40;;;1.17;;
2712;SDS011;1366;47.988;7.856;2023-01-05T10:17:16;2.13;;;1.30;;
2712;SDS011;1366;47.988;7.856;2023-01-05T10:19:43;1.60;;;1.50;;
2712;SDS011;1366;47.988;7.856;2023-01-05T10:27:26;2.23;;;1.33;;
2712;SDS011;1366;47.988;7.856;2023-01-05T10:30:39;2.53;;;1.57;;
2712;SDS011;1366;47.988;7.856;2023-01-05T10:32:56;1.50;;;1.30;;
2712;SDS011;1366;47.988;7.856;2023-01-05T10:45:48;1.50;;;1.40;;
2712;SDS011;1366;47.988;7.856;2023-01-05T10:48:18;1.97;;;1.27;;
2712;SDS011;1366;47.988;7.856;2023-01-05T10:50:46;1.70;;;1.40;;
2712;SDS011;1366;47.988;7.856;2023-01-05T10:55:44;1.47;;;1.37;;
2712;SDS011;1366;47.988;7.856;2023-01-05T10:58:21;3.40;;;1.37;;
2712;SDS011;1366;47.988;7.856;2023-01-05T11:00:48;1.33;;;1.23;;
2712;SDS011;1366;47.988;7.856;2023-01-05T11:03:14;1.60;;;1.50;;
2712;SDS011;1366;47.988;7.856;2023-01-05T11:05:42;1.40;;;1.30;;
2712;SDS011;1366;47.988;7.856;2023-01-05T11:08:13;1.60;;;1.50;;
2712;SDS011;1366;47.988;7.856;2023-01-05T11:10:41;1.73;;;1.40;;
2712;SDS011;1366;47.988;7.856;2023-01-05T11:13:17;1.33;;;1.23;;
2712;SDS011;1366;47.988;7.856;2023-01-05T11:15:50;1.07;;;1.07;;
2712;SDS011;1366;47.988;7.856;2023-01-05T11:18:30;1.80;;;1.70;;
2712;SDS011;1366;47.988;7.856;2023-01-05T11:21:04;1.50;;;1.40;;
2712;SDS011;1366;47.988;7.856;2023-01-05T11:23:53;1.70;;;1.60;;
2712;SDS011;1366;47.988;7.856;2023-01-05T11:26:21;1.40;;;1.20;;
2712;SDS011;1366;47.988;7.856;2023-01-05T11:31:24;1.33;;;1.23;;
2712;SDS011;1366;47.988;7.856;2023-01-05T11:33:56;1.40;;;1.30;;
2712;SDS011;1366;47.988;7.856;2023-01-05T11:36:23;1.60;;;1.50;;
2712;SDS011;1366;47.988;7.856;2023-01-05T11:38:50;3.23;;;3.03;;
2712;SDS011;1366;47.988;7.856;2023-01-05T11:41:18;1.50;;;1.40;;
2712;SDS011;1366;47.988;7.856;2023-01-05T11:43:46;1.30;;;1.20;;
2712;SDS011;1366;47.988;7.856;2023-01-05T11:46:12;1.10;;;1.00;;
2712;SDS011;1366;47.988;7.856;2023-01-05T11:48:39;2.27;;;1.50;;
2712;SDS011;1366;47.988;7.856;2023-01-05T11:51:31;1.00;;;1.00;;
2712;SDS011;1366;47.988;7.856;2023-01-05T11:53:58;2.73;;;1.30;;
2712;SDS011;1366;47.988;7.856;2023-01-05T11:56:25;1.30;;;1.23;;
2712;SDS011;1366;47.988;7.856;2023-01-05T11:58:52;1.03;;;1.03;;
2712;SDS011;1366;47.988;7.856;2023-01-05T12:01:23;1.30;;;1.30;;
2712;SDS011;1366;47.988;7.856;2023-01-05T12:11:49;1.17;;;1.13;;
2712;SDS011;1366;47.988;7.856;2023-01-05T12:16:53;1.30;;;1.20;;
2712;SDS011;1366;47.988;7.856;2023-01-05T12:30:13;3.07;;;1.00;;
2712;SDS011;1366;47.988;7.856;2023-01-05T12:35:40;1.07;;;1.07;;
2712;SDS011;1366;47.988;7.856;2023-01-05T12:48:54;1.17;;;1.07;;
2712;SDS011;1366;47.988;7.856;2023-01-05T12:56:35;0.90;;;0.90;;
2712;SDS011;1366;47.988;7.856;2023-01-05T13:01:41;0.93;;;0.93;;
2712;SDS011;1366;47.988;7.856;2023-01-05T13:04:23;1.00;;;1.00;;
2712;SDS011;1366;47.988;7.856;2023-01-05T13:06:52;1.00;;;1.00;;
2712;SDS011;1366;47.988;7.856;2023-01-05T13:09:21;1.40;;;1.10;;
2712;SDS011;1366;47.988;7.856;2023-01-05T13:11:54;1.30;;;1.20;;
2712;SDS011;1366;47.988;7.856;2023-01-05T13:14:23;1.07;;;0.97;;
2712;SDS011;1366;47.988;7.856;2023-01-05T13:17:03;1.20;;;1.10;;
2712;SDS011;1366;47.988;7.856;2023-01-05T13:21:58;0.90;;;0.90;;
2712;SDS011;1366;47.988;7.856;2023-01-05T13:24:31;1.27;;;1.27;;
2712;SDS011;1366;47.988;7.856;2023-01-05T13:26:58;1.10;;;1.10;;
2712;SDS011;1366;47.988;7.856;2023-01-05T13:29:34;1.20;;;1.10;;
2712;SDS011;1366;47.988;7.856;2023-01-05T13:39:48;1.60;;;1.20;;
2712;SDS011;1366;47.988;7.856;2023-01-05T13:42:22;3.43;;;1.40;;
2712;SDS011;1366;47.988;7.856;2023-01-05T13:45:09;1.40;;;1.30;;
2712;SDS011;1366;47.988;7.856;2023-01-05T13:47:40;1.37;;;1.30;;
2712;SDS011;1366;47.988;7.856;2023-01-05T13:55:31;1.40;;;1.30;;
2712;SDS011;1366;47.988;7.856;2023-01-05T13:57:59;1.40;;;1.30;;
2712;SDS011;1366;47.988;7.856;2023-01-05T14:03:39;1.20;;;1.20;;
2712;SDS011;1366;47.988;7.856;2023-01-05T14:08:05;1.50;;;1.40;;
2712;SDS011;1366;47.988;7.856;2023-01-05T14:10:39;1.17;;;1.10;;
2712;SDS011;1366;47.988;7.856;2023-01-05T14:13:10;1.17;;;1.17;;
2712;SDS011;1366;47.988;7.856;2023-01-05T14:15:51;1.30;;;1.20;;
2712;SDS011;1366;47.988;7.856;2023-01-05T14:24:03;1.10;;;1.10;;
2712;SDS011;1366;47.988;7.856;2023-01-05T14:27:14;1.13;;;1.13;;
2712;SDS011;1366;47.988;7.856;2023-01-05T14:29:36;1.00;;;1.00;;
2712;SDS011;1366;47.988;7.856;2023-01-05T14:32:04;1.00;;;1.00;;
2712;SDS011;1366;47.988;7.856;2023-01-05T14:34:30;1.53;;;1.17;;
2712;SDS011;1366;47.988;7.856;2023-01-05T14:42:26;1.40;;;1.30;;
2712;SDS011;1366;47.988;7.856;2023-01-05T14:44:57;1.20;;;1.20;;
2712;SDS011;1366;47.988;7.856;2023-01-05T14:50:06;1.27;;;1.20;;
2712;SDS011;1366;47.988;7.856;2023-01-05T14:55:28;1.40;;;1.30;;
2712;SDS011;1366;47.988;7.856;2023-01-05T14:57:59;1.73;;;1.63;;
2712;SDS011;1366;47.988;7.856;2023-01-05T15:00:47;1.60;;;1.50;;
2712;SDS011;1366;47.988;7.856;2023-01-05T15:03:16;1.40;;;1.30;;
2712;SDS011;1366;47.988;7.856;2023-01-05T15:05:54;1.43;;;1.33;;
2712;SDS011;1366;47.988;7.856;2023-01-05T15:08:25;1.23;;;1.20;;
2712;SDS011;1366;47.988;7.856;2023-01-05T15:10:57;1.53;;;1.40;;
2712;SDS011;1366;47.988;7.856;2023-01-05T15:16:41;2.43;;;2.23;;
2712;SDS011;1366;47.988;7.856;2023-01-05T15:22:05;1.30;;;1.20;;
2712;SDS011;1366;47.988;7.856;2023-01-05T15:24:55;1.40;;;1.30;;
2712;SDS011;1366;47.988;7.856;2023-01-05T15:32:33;1.20;;;1.20;;
2712;SDS011;1366;47.988;7.856;2023-01-05T15:37:32;1.50;;;1.40;;
2712;SDS011;1366;47.988;7.856;2023-01-05T15:39:59;2.10;;;2.00;;
2712;SDS011;1366;47.988;7.856;2023-01-05T15:45:00;1.30;;;1.20;;
2712;SDS011;1366;47.988;7.856;2023-01-05T15:47:26;1.50;;;1.40;;
2712;SDS011;1366;47.988;7.856;2023-01-05T15:49:57;1.70;;;1.60;;
2712;SDS011;1366;47.988;7.856;2023-01-05T15:52:31;1.43;;;1.33;;
2712;SDS011;1366;47.988;7.856;2023-01-05T15:55:00;1.40;;;1.30;;
2712;SDS011;1366;47.988;7.856;2023-01-05T15:57:26;1.43;;;1.33;;
2712;SDS011;1366;47.988;7.856;2023-01-05T15:59:52;1.60;;;1.50;;
2712;SDS011;1366;47.988;7.856;2023-01-05T16:02:22;1.20;;;1.20;;
2712;SDS011;1366;47.988;7.856;2023-01-05T16:05:08;1.27;;;1.23;;
2712;SDS011;1366;47.988;7.856;2023-01-05T16:07:39;1.37;;;1.27;;
2712;SDS011;1366;47.988;7.856;2023-01-05T16:10:05;1.60;;;1.50;;
2712;SDS011;1366;47.988;7.856;2023-01-05T16:12:31;1.50;;;1.40;;
2712;SDS011;1366;47.988;7.856;2023-01-05T16:14:58;1.70;;;1.50;;
2712;SDS011;1366;47.988;7.856;2023-01-05T16:17:26;1.67;;;1.57;;
2712;SDS011;1366;47.988;7.856;2023-01-05T16:19:54;1.40;;;1.30;;
2712;SDS011;1366;47.988;7.856;2023-01-05T16:27:16;1.67;;;1.57;;
2712;SDS011;1366;47.988;7.856;2023-01-05T16:29:43;1.60;;;1.50;;
2712;SDS011;1366;47.988;7.856;2023-01-05T16:32:30;1.53;;;1.43;;
2712;SDS011;1366;47.988;7.856;2023-01-05T16:37:41;3.70;;;2.50;;
2712;SDS011;1366;47.988;7.856;2023-01-05T16:40:17;4.47;;;3.30;;
2712;SDS011;1366;47.988;7.856;2023-01-05T16:42:44;2.33;;;2.13;;
2712;SDS011;1366;47.988;7.856;2023-01-05T16:45:16;2.30;;;2.20;;
2712;SDS011;1366;47.988;7.856;2023-01-05T16:47:43;2.20;;;2.10;;
2712;SDS011;1366;47.988;7.856;2023-01-05T16:53:03;1.90;;;1.80;;
2712;SDS011;1366;47.988;7.856;2023-01-05T16:55:31;2.40;;;1.93;;
2712;SDS011;1366;47.988;7.856;2023-01-05T16:57:59;1.97;;;1.87;;
2712;SDS011;1366;47.988;7.856;2023-01-05T17:03:00;2.37;;;2.17;;
2712;SDS011;1366;47.988;7.856;2023-01-05T17:05:27;1.80;;;1.70;;
2712;SDS011;1366;47.988;7.856;2023-01-05T17:07:57;2.33;;;1.80;;
2712;SDS011;1366;47.988;7.856;2023-01-05T17:10:24;2.00;;;1.90;;
2712;SDS011;1366;47.988;7.856;2023-01-05T17:12:55;1.90;;;1.80;;
2712;SDS011;1366;47.988;7.856;2023-01-05T17:15:23;2.30;;;2.20;;
2712;SDS011;1366;47.988;7.856;2023-01-05T17:17:49;2.10;;;1.90;;
2712;SDS011;1366;47.988;7.856;2023-01-05T17:20:19;1.80;;;1.70;;
2712;SDS011;1366;47.988;7.856;2023-01-05T17:22:45;2.17;;;2.07;;
2712;SDS011;1366;47.988;7.856;2023-01-05T17:25:11;2.27;;;2.10;;
2712;SDS011;1366;47.988;7.856;2023-01-05T17:27:38;2.23;;;2.13;;
2712;SDS011;1366;47.988;7.856;2023-01-05T17:30:11;1.80;;;1.70;;
2712;SDS011;1366;47.988;7.856;2023-01-05T17:32:37;2.07;;;1.80;;
2712;SDS011;1366;47.988;7.856;2023-01-05T17:35:03;2.40;;;2.10;;
2712;SDS011;1366;47.988;7.856;2023-01-05T17:37:29;2.03;;;1.90;;
2712;SDS011;1366;47.988;7.856;2023-01-05T17:39:56;2.17;;;1.97;;
2712;SDS011;1366;47.988;7.856;2023-01-05T17:42:22;2.80;;;2.40;;
2712;SDS011;1366;47.988;7.856;2023-01-05T17:45:07;2.60;;;2.50;;
2712;SDS011;1366;47.988;7.856;2023-01-05T17:47:33;2.43;;;2.10;;
2712;SDS011;1366;47.988;7.856;2023-01-05T17:49:59;2.20;;;2.10;;
2712;SDS011;1366;47.988;7.856;2023-01-05T17:52:25;4.53;;;2.37;;
2712;SDS011;1366;47.988;7.856;2023-01-05T17:54:51;3.03;;;2.53;;
2712;SDS011;1366;47.988;7.856;2023-01-05T17:57:18;2.70;;;2.50;;
2712;SDS011;1366;47.988;7.856;2023-01-05T17:59:44;2.10;;;1.90;;
2712;SDS011;1366;47.988;7.856;2023-01-05T18:02:10;2.20;;;2.00;;
2712;SDS011;1366;47.988;7.856;2023-01-05T18:04:36;1.80;;;1.70;;
2712;SDS011;1366;47.988;7.856;2023-01-05T18:07:02;2.30;;;1.70;;
2712;SDS011;1366;47.988;7.856;2023-01-05T18:09:29;1.80;;;1.70;;
2712;SDS011;1366;47.988;7.856;2023-01-05T18:11:55;2.00;;;1.90;;
2712;SDS011;1366;47.988;7.856;2023-01-05T18:14:21;2.53;;;2.33;;
2712;SDS011;1366;47.988;7.856;2023-01-05T18:16:47;2.13;;;2.00;;
2712;SDS011;1366;47.988;7.856;2023-01-05T18:19:13;3.30;;;2.00;;
2712;SDS011;1366;47.988;7.856;2023-01-05T18:21:39;3.00;;;2.10;;
2712;SDS011;1366;47.988;7.856;2023-01-05T18:24:05;2.93;;;2.20;;
2712;SDS011;1366;47.988;7.856;2023-01-05T18:26:31;4.03;;;3.23;;
2712;SDS011;1366;47.988;7.856;2023-01-05T18:28:57;3.30;;;3.00;;
2712;SDS011;1366;47.988;7.856;2023-01-05T18:31:23;3.10;;;2.90;;
2712;SDS011;1366;47.988;7.856;2023-01-05T18:33:50;3.60;;;3.20;;
2712;SDS011;1366;47.988;7.856;2023-01-05T18:36:16;3.03;;;2.80;;
2712;SDS011;1366;47.988;7.856;2023-01-05T18:38:42;3.23;;;3.00;;
2712;SDS011;1366;47.988;7.856;2023-01-05T18:41:09;3.37;;;3.17;;
2712;SDS011;1366;47.988;7.856;2023-01-05T18:43:35;3.50;;;3.20;;
2712;SDS011;1366;47.988;7.856;2023-01-05T18:46:02;3.50;;;2.40;;
2712;SDS011;1366;47.988;7.856;2023-01-05T18:48:28;2.80;;;2.17;;
2712;SDS011;1366;47.988;7.856;2023-01-05T18:50:54;2.60;;;2.40;;
2712;SDS011;1366;47.988;7.856;2023-01-05T18:53:20;2.50;;;2.30;;
2712;SDS011;1366;47.988;7.856;2023-01-05T18:55:46;3.40;;;3.10;;
2712;SDS011;1366;47.988;7.856;2023-01-05T18:58:13;2.87;;;2.67;;
2712;SDS011;1366;47.988;7.856;2023-01-05T19:00:40;3.57;;;3.27;;
2712;SDS011;1366;47.988;7.856;2023-01-05T19:03:06;3.97;;;2.70;;
2712;SDS011;1366;47.988;7.856;2023-01-05T19:05:36;4.53;;;3.70;;
2712;SDS011;1366;47.988;7.856;2023-01-05T19:08:03;6.10;;;4.30;;
2712;SDS011;1366;47.988;7.856;2023-01-05T19:10:30;5.00;;;4.30;;
2712;SDS011;1366;47.988;7.856;2023-01-05T19:12:56;4.40;;;3.40;;
2712;SDS011;1366;47.988;7.856;2023-01-05T19:15:22;4.60;;;3.43;;
2712;SDS011;1366;47.988;7.856;2023-01-05T19:17:48;3.57;;;3.07;;
2712;SDS011;1366;47.988;7.856;2023-01-05T19:20:17;2.67;;;2.00;;
2712;SDS011;1366;47.988;7.856;2023-01-05T19:22:43;2.43;;;1.90;;
2712;SDS011;1366;47.988;7.856;2023-01-05T19:25:11;2.47;;;2.10;;
2712;SDS011;1366;47.988;7.856;2023-01-05T19:27:37;2.53;;;2.30;;
2712;SDS011;1366;47.988;7.856;2023-01-05T19:30:04;5.30;;;2.43;;
2712;SDS011;1366;47.988;7.856;2023-01-05T19:32:33;2.20;;;2.00;;
2712;SDS011;1366;47.988;7.856;2023-01-05T19:35:01;1.93;;;1.60;;
2712;SDS011;1366;47.988;7.856;2023-01-05T19:37:27;2.13;;;1.93;;
2712;SDS011;1366;47.988;7.856;2023-01-05T19:39:53;2.57;;;2.37;;
2712;SDS011;1366;47.988;7.856;2023-01-05T19:42:19;2.60;;;2.40;;
2712;SDS011;1366;47.988;7.856;2023-01-05T19:44:45;3.10;;;2.90;;
2712;SDS011;1366;47.988;7.856;2023-01-05T19:47:12;4.50;;;3.20;;
2712;SDS011;1366;47.988;7.856;2023-01-05T19:49:38;4.07;;;3.67;;
2712;SDS011;1366;47.988;7.856;2023-01-05T19:52:04;3.73;;;3.43;;
2712;SDS011;1366;47.988;7.856;2023-01-05T19:54:30;3.00;;;2.80;;
2712;SDS011;1366;47.988;7.856;2023-01-05T19:56:56;3.00;;;2.80;;
2712;SDS011;1366;47.988;7.856;2023-01-05T19:59:23;3.30;;;3.10;;
2712;SDS011;1366;47.988;7.856;2023-01-05T20:01:56;3.57;;;3.33;;
2712;SDS011;1366;47.988;7.856;2023-01-05T20:04:22;4.00;;;3.70;;
2712;SDS011;1366;47.988;7.856;2023-01-05T20:06:48;3.77;;;3.47;;
2712;SDS011;1366;47.988;7.856;2023-01-05T20:09:15;4.70;;;4.30;;
2712;SDS011;1366;47.988;7.856;2023-01-05T20:11:43;4.00;;;3.70;;
2712;SDS011;1366;47.988;7.856;2023-01-05T20:16:37;3.17;;;2.93;;
2712;SDS011;1366;47.988;7.856;2023-01-05T20:19:03;3.50;;;3.20;;
2712;SDS011;1366;47.988;7.856;2023-01-05T20:21:30;3.90;;;3.50;;
2712;SDS011;1366;47.988;7.856;2023-01-05T20:23:58;3.83;;;3.53;;
2712;SDS011;1366;47.988;7.856;2023-01-05T20:26:25;3.27;;;2.97;;
2712;SDS011;1366;47.988;7.856;2023-01-05T20:28:51;3.17;;;2.97;;
2712;SDS011;1366;47.988;7.856;2023-01-05T20:31:24;3.30;;;3.10;;
2712;SDS011;1366;47.988;7.856;2023-01-05T20:33:52;3.07;;;2.87;;
2712;SDS011;1366;47.988;7.856;2023-01-05T20:36:18;3.10;;;2.90;;
2712;SDS011;1366;47.988;7.856;2023-01-05T20:38:44;4.23;;;3.43;;
2712;SDS011;1366;47.988;7.856;2023-01-05T20:41:32;4.63;;;3.77;;
2712;SDS011;1366;47.988;7.856;2023-01-05T20:43:57;4.13;;;3.83;;
2712;SDS011;1366;47.988;7.856;2023-01-05T20:46:25;4.00;;;3.70;;
2712;SDS011;1366;47.988;7.856;2023-01-05T20:48:52;4.00;;;3.70;;
2712;SDS011;1366;47.988;7.856;2023-01-05T20:51:18;4.17;;;3.60;;
2712;SDS011;1366;47.988;7.856;2023-01-05T20:53:48;4.17;;;3.80;;
2712;SDS011;1366;47.988;7.856;2023-01-05T20:56:16;4.10;;;3.80;;
2712;SDS011;1366;47.988;7.856;2023-01-05T20:58:43;3.73;;;3.43;;
2712;SDS011;1366;47.988;7.856;2023-01-05T21:01:10;4.33;;;3.93;;
2712;SDS011;1366;47.988;7.856;2023-01-05T21:03:37;4.00;;;3.70;;
2712;SDS011;1366;47.988;7.856;2023-01-05T21:06:04;3.63;;;3.33;;
2712;SDS011;1366;47.988;7.856;2023-01-05T21:08:30;3.30;;;3.10;;
2712;SDS011;1366;47.988;7.856;2023-01-05T21:10:57;4.70;;;4.07;;
2712;SDS011;1366;47.988;7.856;2023-01-05T21:13:23;4.17;;;3.80;;
2712;SDS011;1366;47.988;7.856;2023-01-05T21:15:54;4.23;;;3.93;;
2712;SDS011;1366;47.988;7.856;2023-01-05T21:18:20;4.57;;;4.20;;
2712;SDS011;1366;47.988;7.856;2023-01-05T21:20:46;4.20;;;3.80;;
2712;SDS011;1366;47.988;7.856;2023-01-05T21:23:12;4.40;;;4.00;;
2712;SDS011;1366;47.988;7.856;2023-01-05T21:25:42;4.33;;;4.00;;
2712;SDS011;1366;47.988;7.856;2023-01-05T21:28:08;5.20;;;4.30;;
2712;SDS011;1366;47.988;7.856;2023-01-05T21:30:35;4.40;;;4.00;;
2712;SDS011;1366;47.988;7.856;2023-01-05T21:33:01;5.07;;;4.67;;
2712;SDS011;1366;47.988;7.856;2023-01-05T21:35:27;4.67;;;4.00;;
2712;SDS011;1366;47.988;7.856;2023-01-05T21:37:53;4.20;;;3.80;;
2712;SDS011;1366;47.988;7.856;2023-01-05T21:40:19;4.60;;;4.20;;
2712;SDS011;1366;47.988;7.856;2023-01-05T21:42:45;5.40;;;4.13;;
2712;SDS011;1366;47.988;7.856;2023-01-05T21:45:14;4.23;;;3.90;;
2712;SDS011;1366;47.988;7.856;2023-01-05T21:47:40;4.00;;;3.70;;
2712;SDS011;1366;47.988;7.856;2023-01-05T21:50:07;4.23;;;3.83;;
2712;SDS011;1366;47.988;7.856;2023-01-05T21:52:33;4.47;;;4.13;;
2712;SDS011;1366;47.988;7.856;2023-01-05T21:55:18;3.60;;;3.30;;
2712;SDS011;1366;47.988;7.856;2023-01-05T21:58:03;4.40;;;4.10;;
2712;SDS011;1366;47.988;7.856;2023-01-05T22:00:29;4.07;;;3.80;;
2712;SDS011;1366;47.988;7.856;2023-01-05T22:02:55;5.40;;;4.20;;
2712;SDS011;1366;47.988;7.856;2023-01-05T22:05:22;4.60;;;4.20;;
2712;SDS011;1366;47.988;7.856;2023-01-05T22:07:48;3.43;;;3.23;;
2712;SDS011;1366;47.988;7.856;2023-01-05T22:10:14;3.63;;;3.33;;
2712;SDS011;1366;47.988;7.856;2023-01-05T22:12:41;4.40;;;3.33;;
2712;SDS011;1366;47.988;7.856;2023-01-05T22:15:07;3.80;;;3.50;;
2712;SDS011;1366;47.988;7.856;2023-01-05T22:17:34;3.80;;;3.47;;
2712;SDS011;1366;47.988;7.856;2023-01-05T22:20:00;3.50;;;3.20;;
2712;SDS011;1366;47.988;7.856;2023-01-05T22:22:26;4.10;;;3.70;;
2712;SDS011;1366;47.988;7.856;2023-01-05T22:24:52;3.57;;;3.27;;
2712;SDS011;1366;47.988;7.856;2023-01-05T22:27:18;3.03;;;2.83;;
2712;SDS011;1366;47.988;7.856;2023-01-05T22:29:44;4.70;;;2.90;;
2712;SDS011;1366;47.988;7.856;2023-01-05T22:32:10;3.77;;;3.47;;
2712;SDS011;1366;47.988;7.856;2023-01-05T22:34:36;3.63;;;2.97;;
2712;SDS011;1366;47.988;7.856;2023-01-05T22:37:07;3.60;;;3.30;;